sensor_id;sensor_type;location;lat;lon;timestamp;P1;durP1;ratioP1;P2;durP2;ratioP2
12962;SDS011;6546;49.882;8.666;2023-07-29T00:02:26;2.60;;;2.40;;
12962;SDS011;6546;49.882;8.666;2023-07-29T00:04:56;3.67;;;2.30;;
12962;SDS011;6546;49.882;8.666;2023-07-29T00:07:22;3.50;;;2.07;;
12962;SDS011;6546;49.882;8.666;2023-07-29T00:09:49;2.47;;;2.27;;
12962;SDS011;6546;49.882;8.666;2023-07-29T00:12:16;2.17;;;2.03;;
12962;SDS011;6546;49.882;8.666;2023-07-29T00:14:45;2.27;;;2.10;;
12962;SDS011;6546;49.882;8.666;2023-07-29T00:17:12;2.33;;;2.13;;
12962;SDS011;6546;49.882;8.666;2023-07-29T00:19:39;3.07;;;2.50;;
12962;SDS011;6546;49.882;8.666;2023-07-29T00:22:06;4.13;;;2.37;;
12962;SDS011;6546;49.882;8.666;2023-07-29T00:24:34;2.50;;;2.03;;
12962;SDS011;6546;49.882;8.666;2023-07-29T00:27:01;3.63;;;2.17;;
12962;SDS011;6546;49.882;8.666;2023-07-29T00:29:28;3.67;;;2.20;;
12962;SDS011;6546;49.882;8.666;2023-07-29T00:31:57;2.30;;;2.10;;
12962;SDS011;6546;49.882;8.666;2023-07-29T00:34:24;2.60;;;2.00;;
12962;SDS011;6546;49.882;8.666;2023-07-29T00:36:51;2.13;;;1.93;;
12962;SDS011;6546;49.882;8.666;2023-07-29T00:39:18;2.10;;;1.90;;
12962;SDS011;6546;49.882;8.666;2023-07-29T00:41:45;1.97;;;1.80;;
12962;SDS011;6546;49.882;8.666;2023-07-29T00:44:12;2.80;;;2.00;;
12962;SDS011;6546;49.882;8.666;2023-07-29T00:46:39;2.10;;;2.00;;
12962;SDS011;6546;49.882;8.666;2023-07-29T00:49:08;2.67;;;2.00;;
12962;SDS011;6546;49.882;8.666;2023-07-29T00:51:36;2.20;;;1.93;;
12962;SDS011;6546;49.882;8.666;2023-07-29T00:54:03;2.00;;;1.90;;
12962;SDS011;6546;49.882;8.666;2023-07-29T00:56:29;1.90;;;1.80;;
12962;SDS011;6546;49.882;8.666;2023-07-29T00:58:57;2.90;;;1.90;;
12962;SDS011;6546;49.882;8.666;2023-07-29T01:01:27;2.13;;;1.93;;
12962;SDS011;6546;49.882;8.666;2023-07-29T01:03:54;2.50;;;2.10;;
12962;SDS011;6546;49.882;8.666;2023-07-29T01:06:23;5.23;;;2.00;;
12962;SDS011;6546;49.882;8.666;2023-07-29T01:08:56;1.80;;;1.70;;
12962;SDS011;6546;49.882;8.666;2023-07-29T01:11:38;2.13;;;1.70;;
12962;SDS011;6546;49.882;8.666;2023-07-29T01:14:13;2.00;;;1.90;;
12962;SDS011;6546;49.882;8.666;2023-07-29T01:16:49;1.90;;;1.70;;
12962;SDS011;6546;49.882;8.666;2023-07-29T01:19:26;2.60;;;1.70;;
12962;SDS011;6546;49.882;8.666;2023-07-29T01:22:18;1.90;;;1.70;;
12962;SDS011;6546;49.882;8.666;2023-07-29T01:24:48;1.80;;;1.70;;
12962;SDS011;6546;49.882;8.666;2023-07-29T01:27:15;1.87;;;1.70;;
12962;SDS011;6546;49.882;8.666;2023-07-29T01:29:41;3.43;;;1.70;;
12962;SDS011;6546;49.882;8.666;2023-07-29T01:32:09;1.80;;;1.70;;
12962;SDS011;6546;49.882;8.666;2023-07-29T01:34:41;3.63;;;1.50;;
12962;SDS011;6546;49.882;8.666;2023-07-29T01:37:15;1.83;;;1.70;;
12962;SDS011;6546;49.882;8.666;2023-07-29T01:39:48;2.13;;;1.50;;
12962;SDS011;6546;49.882;8.666;2023-07-29T01:42:16;1.87;;;1.50;;
12962;SDS011;6546;49.882;8.666;2023-07-29T01:44:43;2.10;;;1.50;;
12962;SDS011;6546;49.882;8.666;2023-07-29T01:47:10;1.60;;;1.47;;
12962;SDS011;6546;49.882;8.666;2023-07-29T01:49:36;1.73;;;1.40;;
12962;SDS011;6546;49.882;8.666;2023-07-29T01:52:03;2.13;;;1.23;;
12962;SDS011;6546;49.882;8.666;2023-07-29T01:54:30;1.87;;;1.63;;
12962;SDS011;6546;49.882;8.666;2023-07-29T01:56:58;1.80;;;1.70;;
12962;SDS011;6546;49.882;8.666;2023-07-29T01:59:24;1.57;;;1.47;;
12962;SDS011;6546;49.882;8.666;2023-07-29T02:01:51;2.67;;;1.50;;
12962;SDS011;6546;49.882;8.666;2023-07-29T02:04:17;2.43;;;1.40;;
12962;SDS011;6546;49.882;8.666;2023-07-29T02:06:44;1.60;;;1.50;;
12962;SDS011;6546;49.882;8.666;2023-07-29T02:09:10;1.83;;;1.70;;
12962;SDS011;6546;49.882;8.666;2023-07-29T02:11:37;2.10;;;1.37;;
12962;SDS011;6546;49.882;8.666;2023-07-29T02:14:05;2.87;;;1.53;;
12962;SDS011;6546;49.882;8.666;2023-07-29T02:16:31;3.33;;;1.90;;
12962;SDS011;6546;49.882;8.666;2023-07-29T02:19:01;3.37;;;1.50;;
12962;SDS011;6546;49.882;8.666;2023-07-29T02:21:28;1.87;;;1.50;;
12962;SDS011;6546;49.882;8.666;2023-07-29T02:23:54;5.03;;;1.47;;
12962;SDS011;6546;49.882;8.666;2023-07-29T02:26:21;2.47;;;1.30;;
12962;SDS011;6546;49.882;8.666;2023-07-29T02:28:48;2.40;;;1.60;;
12962;SDS011;6546;49.882;8.666;2023-07-29T02:31:17;1.87;;;1.77;;
12962;SDS011;6546;49.882;8.666;2023-07-29T02:33:45;2.00;;;1.63;;
12962;SDS011;6546;49.882;8.666;2023-07-29T02:36:12;3.10;;;1.50;;
12962;SDS011;6546;49.882;8.666;2023-07-29T02:38:40;2.23;;;1.53;;
12962;SDS011;6546;49.882;8.666;2023-07-29T02:41:07;1.43;;;1.33;;
12962;SDS011;6546;49.882;8.666;2023-07-29T02:43:34;1.93;;;1.80;;
12962;SDS011;6546;49.882;8.666;2023-07-29T02:46:01;1.43;;;1.33;;
12962;SDS011;6546;49.882;8.666;2023-07-29T02:48:29;2.37;;;1.70;;
12962;SDS011;6546;49.882;8.666;2023-07-29T02:50:56;1.70;;;1.60;;
12962;SDS011;6546;49.882;8.666;2023-07-29T02:53:22;2.07;;;1.93;;
12962;SDS011;6546;49.882;8.666;2023-07-29T02:55:49;2.77;;;1.93;;
12962;SDS011;6546;49.882;8.666;2023-07-29T02:58:16;2.10;;;1.60;;
12962;SDS011;6546;49.882;8.666;2023-07-29T03:00:42;3.00;;;1.83;;
12962;SDS011;6546;49.882;8.666;2023-07-29T03:03:09;2.03;;;1.73;;
12962;SDS011;6546;49.882;8.666;2023-07-29T03:05:37;2.37;;;1.90;;
12962;SDS011;6546;49.882;8.666;2023-07-29T03:08:03;1.90;;;1.73;;
12962;SDS011;6546;49.882;8.666;2023-07-29T03:10:30;1.70;;;1.60;;
12962;SDS011;6546;49.882;8.666;2023-07-29T03:12:56;2.67;;;1.97;;
12962;SDS011;6546;49.882;8.666;2023-07-29T03:15:23;3.43;;;2.00;;
12962;SDS011;6546;49.882;8.666;2023-07-29T03:17:50;2.33;;;1.87;;
12962;SDS011;6546;49.882;8.666;2023-07-29T03:20:17;3.03;;;2.10;;
12962;SDS011;6546;49.882;8.666;2023-07-29T03:22:45;3.43;;;1.80;;
12962;SDS011;6546;49.882;8.666;2023-07-29T03:25:11;1.97;;;1.77;;
12962;SDS011;6546;49.882;8.666;2023-07-29T03:27:38;2.03;;;1.80;;
12962;SDS011;6546;49.882;8.666;2023-07-29T03:30:06;2.00;;;1.80;;
12962;SDS011;6546;49.882;8.666;2023-07-29T03:32:37;2.60;;;1.90;;
12962;SDS011;6546;49.882;8.666;2023-07-29T03:35:07;2.90;;;1.70;;
12962;SDS011;6546;49.882;8.666;2023-07-29T03:37:34;1.70;;;1.60;;
12962;SDS011;6546;49.882;8.666;2023-07-29T03:40:02;1.80;;;1.70;;
12962;SDS011;6546;49.882;8.666;2023-07-29T03:42:29;3.80;;;2.10;;
12962;SDS011;6546;49.882;8.666;2023-07-29T03:44:55;2.60;;;1.90;;
12962;SDS011;6546;49.882;8.666;2023-07-29T03:47:22;2.93;;;1.80;;
12962;SDS011;6546;49.882;8.666;2023-07-29T03:49:49;3.07;;;1.63;;
12962;SDS011;6546;49.882;8.666;2023-07-29T03:52:15;2.90;;;1.90;;
12962;SDS011;6546;49.882;8.666;2023-07-29T03:54:42;3.30;;;1.97;;
12962;SDS011;6546;49.882;8.666;2023-07-29T03:57:10;2.23;;;2.03;;
12962;SDS011;6546;49.882;8.666;2023-07-29T03:59:36;4.17;;;2.20;;
12962;SDS011;6546;49.882;8.666;2023-07-29T04:02:03;2.70;;;2.10;;
12962;SDS011;6546;49.882;8.666;2023-07-29T04:04:30;2.50;;;1.90;;
12962;SDS011;6546;49.882;8.666;2023-07-29T04:06:57;2.40;;;2.20;;
12962;SDS011;6546;49.882;8.666;2023-07-29T04:09:24;3.00;;;1.97;;
12962;SDS011;6546;49.882;8.666;2023-07-29T04:11:50;4.10;;;2.10;;
12962;SDS011;6546;49.882;8.666;2023-07-29T04:14:18;4.70;;;2.33;;
12962;SDS011;6546;49.882;8.666;2023-07-29T04:16:45;2.30;;;2.10;;
12962;SDS011;6546;49.882;8.666;2023-07-29T04:19:12;1.93;;;1.83;;
12962;SDS011;6546;49.882;8.666;2023-07-29T04:21:38;2.73;;;1.70;;
12962;SDS011;6546;49.882;8.666;2023-07-29T04:24:05;3.23;;;2.00;;
12962;SDS011;6546;49.882;8.666;2023-07-29T04:26:31;1.90;;;1.80;;
12962;SDS011;6546;49.882;8.666;2023-07-29T04:28:58;2.20;;;2.10;;
12962;SDS011;6546;49.882;8.666;2023-07-29T04:31:26;4.00;;;2.07;;
12962;SDS011;6546;49.882;8.666;2023-07-29T04:33:52;2.43;;;2.20;;
12962;SDS011;6546;49.882;8.666;2023-07-29T04:36:19;3.63;;;2.60;;
12962;SDS011;6546;49.882;8.666;2023-07-29T04:38:45;2.17;;;2.00;;
12962;SDS011;6546;49.882;8.666;2023-07-29T04:41:12;2.50;;;2.20;;
12962;SDS011;6546;49.882;8.666;2023-07-29T04:43:38;2.70;;;2.27;;
12962;SDS011;6546;49.882;8.666;2023-07-29T04:46:06;3.13;;;2.50;;
12962;SDS011;6546;49.882;8.666;2023-07-29T04:48:34;2.37;;;2.00;;
12962;SDS011;6546;49.882;8.666;2023-07-29T04:51:01;3.07;;;2.17;;
12962;SDS011;6546;49.882;8.666;2023-07-29T04:53:28;2.50;;;2.17;;
12962;SDS011;6546;49.882;8.666;2023-07-29T04:55:54;3.47;;;2.50;;
12962;SDS011;6546;49.882;8.666;2023-07-29T04:58:21;3.33;;;2.47;;
12962;SDS011;6546;49.882;8.666;2023-07-29T05:00:47;2.83;;;2.33;;
12962;SDS011;6546;49.882;8.666;2023-07-29T05:03:14;2.37;;;2.10;;
12962;SDS011;6546;49.882;8.666;2023-07-29T05:05:44;2.73;;;2.40;;
12962;SDS011;6546;49.882;8.666;2023-07-29T05:08:10;2.70;;;2.50;;
12962;SDS011;6546;49.882;8.666;2023-07-29T05:10:37;2.50;;;2.30;;
12962;SDS011;6546;49.882;8.666;2023-07-29T05:13:03;2.40;;;2.20;;
12962;SDS011;6546;49.882;8.666;2023-07-29T05:15:30;2.67;;;2.23;;
12962;SDS011;6546;49.882;8.666;2023-07-29T05:17:56;2.53;;;2.20;;
12962;SDS011;6546;49.882;8.666;2023-07-29T05:20:23;3.43;;;1.90;;
12962;SDS011;6546;49.882;8.666;2023-07-29T05:22:51;3.27;;;2.30;;
12962;SDS011;6546;49.882;8.666;2023-07-29T05:25:17;3.87;;;2.20;;
12962;SDS011;6546;49.882;8.666;2023-07-29T05:27:44;2.50;;;2.10;;
12962;SDS011;6546;49.882;8.666;2023-07-29T05:30:11;2.40;;;2.00;;
12962;SDS011;6546;49.882;8.666;2023-07-29T05:32:37;2.43;;;2.23;;
12962;SDS011;6546;49.882;8.666;2023-07-29T05:35:04;1.60;;;1.50;;
12962;SDS011;6546;49.882;8.666;2023-07-29T05:37:31;6.43;;;2.30;;
12962;SDS011;6546;49.882;8.666;2023-07-29T05:39:59;5.17;;;2.53;;
12962;SDS011;6546;49.882;8.666;2023-07-29T05:42:26;2.93;;;2.37;;
12962;SDS011;6546;49.882;8.666;2023-07-29T05:44:52;3.20;;;2.30;;
12962;SDS011;6546;49.882;8.666;2023-07-29T05:47:19;2.27;;;2.07;;
12962;SDS011;6546;49.882;8.666;2023-07-29T05:49:45;4.00;;;3.30;;
12962;SDS011;6546;49.882;8.666;2023-07-29T05:52:12;4.00;;;3.43;;
12962;SDS011;6546;49.882;8.666;2023-07-29T05:54:39;3.10;;;2.73;;
12962;SDS011;6546;49.882;8.666;2023-07-29T05:57:07;2.77;;;2.40;;
12962;SDS011;6546;49.882;8.666;2023-07-29T05:59:33;2.40;;;2.20;;
12962;SDS011;6546;49.882;8.666;2023-07-29T06:02:00;3.23;;;2.30;;
12962;SDS011;6546;49.882;8.666;2023-07-29T06:04:26;3.87;;;1.90;;
12962;SDS011;6546;49.882;8.666;2023-07-29T06:06:53;3.60;;;2.20;;
12962;SDS011;6546;49.882;8.666;2023-07-29T06:09:20;2.93;;;2.43;;
12962;SDS011;6546;49.882;8.666;2023-07-29T06:11:47;2.23;;;2.03;;
12962;SDS011;6546;49.882;8.666;2023-07-29T06:14:15;3.90;;;2.40;;
12962;SDS011;6546;49.882;8.666;2023-07-29T06:16:42;2.73;;;2.37;;
12962;SDS011;6546;49.882;8.666;2023-07-29T06:19:08;3.30;;;2.33;;
12962;SDS011;6546;49.882;8.666;2023-07-29T06:21:35;3.17;;;2.37;;
12962;SDS011;6546;49.882;8.666;2023-07-29T06:24:02;3.80;;;2.53;;
12962;SDS011;6546;49.882;8.666;2023-07-29T06:26:28;2.53;;;2.33;;
12962;SDS011;6546;49.882;8.666;2023-07-29T06:28:55;3.97;;;2.70;;
12962;SDS011;6546;49.882;8.666;2023-07-29T06:31:23;2.73;;;2.40;;
12962;SDS011;6546;49.882;8.666;2023-07-29T06:33:50;3.80;;;2.20;;
12962;SDS011;6546;49.882;8.666;2023-07-29T06:36:17;3.43;;;2.70;;
12962;SDS011;6546;49.882;8.666;2023-07-29T06:38:43;4.67;;;3.00;;
12962;SDS011;6546;49.882;8.666;2023-07-29T06:41:10;4.80;;;2.77;;
12962;SDS011;6546;49.882;8.666;2023-07-29T06:43:36;8.30;;;3.30;;
12962;SDS011;6546;49.882;8.666;2023-07-29T06:46:03;4.23;;;3.80;;
12962;SDS011;6546;49.882;8.666;2023-07-29T06:48:31;4.13;;;3.83;;
12962;SDS011;6546;49.882;8.666;2023-07-29T06:50:57;4.13;;;3.83;;
12962;SDS011;6546;49.882;8.666;2023-07-29T06:53:25;4.83;;;3.93;;
12962;SDS011;6546;49.882;8.666;2023-07-29T06:55:52;5.67;;;4.47;;
12962;SDS011;6546;49.882;8.666;2023-07-29T06:58:18;4.50;;;4.10;;
12962;SDS011;6546;49.882;8.666;2023-07-29T07:00:45;4.70;;;4.30;;
12962;SDS011;6546;49.882;8.666;2023-07-29T07:03:12;4.60;;;4.20;;
12962;SDS011;6546;49.882;8.666;2023-07-29T07:05:40;5.30;;;4.10;;
12962;SDS011;6546;49.882;8.666;2023-07-29T07:08:06;5.50;;;4.30;;
12962;SDS011;6546;49.882;8.666;2023-07-29T07:10:33;4.90;;;4.30;;
12962;SDS011;6546;49.882;8.666;2023-07-29T07:12:59;5.17;;;4.43;;
12962;SDS011;6546;49.882;8.666;2023-07-29T07:15:26;6.53;;;5.13;;
12962;SDS011;6546;49.882;8.666;2023-07-29T07:17:52;4.40;;;4.00;;
12962;SDS011;6546;49.882;8.666;2023-07-29T07:20:19;4.50;;;3.63;;
12962;SDS011;6546;49.882;8.666;2023-07-29T07:22:47;3.43;;;3.20;;
12962;SDS011;6546;49.882;8.666;2023-07-29T07:25:13;5.40;;;3.53;;
12962;SDS011;6546;49.882;8.666;2023-07-29T07:27:40;4.20;;;3.20;;
12962;SDS011;6546;49.882;8.666;2023-07-29T07:30:07;3.77;;;3.30;;
12962;SDS011;6546;49.882;8.666;2023-07-29T07:32:34;4.33;;;2.73;;
12962;SDS011;6546;49.882;8.666;2023-07-29T07:35:01;3.10;;;2.80;;
12962;SDS011;6546;49.882;8.666;2023-07-29T07:37:27;3.23;;;2.60;;
12962;SDS011;6546;49.882;8.666;2023-07-29T07:39:55;3.23;;;2.50;;
12962;SDS011;6546;49.882;8.666;2023-07-29T07:42:22;3.27;;;2.40;;
12962;SDS011;6546;49.882;8.666;2023-07-29T07:44:49;3.00;;;2.20;;
12962;SDS011;6546;49.882;8.666;2023-07-29T07:47:15;2.37;;;2.00;;
12962;SDS011;6546;49.882;8.666;2023-07-29T07:49:42;1.90;;;1.80;;
12962;SDS011;6546;49.882;8.666;2023-07-29T07:52:08;3.03;;;2.00;;
12962;SDS011;6546;49.882;8.666;2023-07-29T07:54:35;2.03;;;1.60;;
12962;SDS011;6546;49.882;8.666;2023-07-29T07:57:03;2.40;;;2.00;;
12962;SDS011;6546;49.882;8.666;2023-07-29T07:59:30;1.63;;;1.50;;
12962;SDS011;6546;49.882;8.666;2023-07-29T08:01:56;2.53;;;1.90;;
12962;SDS011;6546;49.882;8.666;2023-07-29T08:04:23;2.63;;;1.80;;
12962;SDS011;6546;49.882;8.666;2023-07-29T08:06:49;2.27;;;1.73;;
12962;SDS011;6546;49.882;8.666;2023-07-29T08:09:16;3.10;;;1.90;;
12962;SDS011;6546;49.882;8.666;2023-07-29T08:11:42;2.20;;;2.00;;
12962;SDS011;6546;49.882;8.666;2023-07-29T08:14:10;2.53;;;2.33;;
12962;SDS011;6546;49.882;8.666;2023-07-29T08:16:37;3.43;;;2.37;;
12962;SDS011;6546;49.882;8.666;2023-07-29T08:19:03;2.47;;;2.00;;
12962;SDS011;6546;49.882;8.666;2023-07-29T08:21:30;3.60;;;2.23;;
12962;SDS011;6546;49.882;8.666;2023-07-29T08:23:56;2.80;;;1.70;;
12962;SDS011;6546;49.882;8.666;2023-07-29T08:26:23;2.13;;;1.80;;
12962;SDS011;6546;49.882;8.666;2023-07-29T08:28:49;3.40;;;2.10;;
12962;SDS011;6546;49.882;8.666;2023-07-29T08:31:17;2.53;;;1.70;;
12962;SDS011;6546;49.882;8.666;2023-07-29T08:33:43;4.47;;;1.90;;
12962;SDS011;6546;49.882;8.666;2023-07-29T08:36:10;2.20;;;1.80;;
12962;SDS011;6546;49.882;8.666;2023-07-29T08:38:36;2.27;;;1.60;;
12962;SDS011;6546;49.882;8.666;2023-07-29T08:41:05;2.53;;;1.83;;
12962;SDS011;6546;49.882;8.666;2023-07-29T08:43:39;4.00;;;2.27;;
12962;SDS011;6546;49.882;8.666;2023-07-29T08:46:10;5.57;;;2.10;;
12962;SDS011;6546;49.882;8.666;2023-07-29T08:48:40;3.20;;;2.30;;
12962;SDS011;6546;49.882;8.666;2023-07-29T08:51:08;2.83;;;2.57;;
12962;SDS011;6546;49.882;8.666;2023-07-29T08:53:36;3.70;;;2.80;;
12962;SDS011;6546;49.882;8.666;2023-07-29T08:56:03;3.20;;;2.60;;
12962;SDS011;6546;49.882;8.666;2023-07-29T08:58:31;2.90;;;2.60;;
12962;SDS011;6546;49.882;8.666;2023-07-29T09:00:58;2.97;;;2.60;;
12962;SDS011;6546;49.882;8.666;2023-07-29T09:03:24;4.20;;;2.30;;
12962;SDS011;6546;49.882;8.666;2023-07-29T09:05:52;2.10;;;2.00;;
12962;SDS011;6546;49.882;8.666;2023-07-29T09:08:21;3.53;;;2.43;;
12962;SDS011;6546;49.882;8.666;2023-07-29T09:10:49;2.20;;;2.00;;
12962;SDS011;6546;49.882;8.666;2023-07-29T09:13:15;2.23;;;2.07;;
12962;SDS011;6546;49.882;8.666;2023-07-29T09:15:42;3.97;;;1.80;;
12962;SDS011;6546;49.882;8.666;2023-07-29T09:18:09;3.50;;;1.80;;
12962;SDS011;6546;49.882;8.666;2023-07-29T09:20:37;1.97;;;1.50;;
12962;SDS011;6546;49.882;8.666;2023-07-29T09:23:06;1.80;;;1.70;;
12962;SDS011;6546;49.882;8.666;2023-07-29T09:25:35;3.77;;;2.07;;
12962;SDS011;6546;49.882;8.666;2023-07-29T09:28:07;3.73;;;2.10;;
12962;SDS011;6546;49.882;8.666;2023-07-29T09:30:36;3.30;;;2.13;;
12962;SDS011;6546;49.882;8.666;2023-07-29T09:33:03;3.17;;;2.10;;
12962;SDS011;6546;49.882;8.666;2023-07-29T09:35:30;2.67;;;2.13;;
12962;SDS011;6546;49.882;8.666;2023-07-29T09:37:59;2.87;;;2.00;;
12962;SDS011;6546;49.882;8.666;2023-07-29T09:40:27;2.97;;;1.70;;
12962;SDS011;6546;49.882;8.666;2023-07-29T09:42:54;2.97;;;1.53;;
12962;SDS011;6546;49.882;8.666;2023-07-29T09:45:21;1.70;;;1.47;;
12962;SDS011;6546;49.882;8.666;2023-07-29T09:47:49;3.50;;;1.50;;
12962;SDS011;6546;49.882;8.666;2023-07-29T09:50:16;4.13;;;1.50;;
12962;SDS011;6546;49.882;8.666;2023-07-29T09:52:43;2.50;;;1.30;;
12962;SDS011;6546;49.882;8.666;2023-07-29T09:55:11;1.87;;;1.50;;
12962;SDS011;6546;49.882;8.666;2023-07-29T09:57:44;2.33;;;1.37;;
12962;SDS011;6546;49.882;8.666;2023-07-29T10:00:11;1.63;;;1.30;;
12962;SDS011;6546;49.882;8.666;2023-07-29T10:02:39;1.30;;;1.17;;
12962;SDS011;6546;49.882;8.666;2023-07-29T10:05:06;1.73;;;1.40;;
12962;SDS011;6546;49.882;8.666;2023-07-29T10:07:34;2.07;;;1.50;;
12962;SDS011;6546;49.882;8.666;2023-07-29T10:10:02;1.83;;;1.27;;
12962;SDS011;6546;49.882;8.666;2023-07-29T10:12:31;3.30;;;1.40;;
12962;SDS011;6546;49.882;8.666;2023-07-29T10:15:02;2.10;;;1.37;;
12962;SDS011;6546;49.882;8.666;2023-07-29T10:17:30;3.50;;;1.40;;
12962;SDS011;6546;49.882;8.666;2023-07-29T10:19:59;2.97;;;1.23;;
12962;SDS011;6546;49.882;8.666;2023-07-29T10:22:27;1.30;;;1.20;;
12962;SDS011;6546;49.882;8.666;2023-07-29T10:24:56;1.23;;;1.13;;
12962;SDS011;6546;49.882;8.666;2023-07-29T10:27:31;1.80;;;1.10;;
12962;SDS011;6546;49.882;8.666;2023-07-29T10:30:06;1.83;;;1.40;;
12962;SDS011;6546;49.882;8.666;2023-07-29T10:32:33;1.50;;;1.40;;
12962;SDS011;6546;49.882;8.666;2023-07-29T10:35:00;5.03;;;1.30;;
12962;SDS011;6546;49.882;8.666;2023-07-29T10:37:27;4.20;;;1.20;;
12962;SDS011;6546;49.882;8.666;2023-07-29T10:39:54;1.60;;;1.37;;
12962;SDS011;6546;49.882;8.666;2023-07-29T10:42:21;2.53;;;1.40;;
12962;SDS011;6546;49.882;8.666;2023-07-29T10:44:49;1.53;;;1.40;;
12962;SDS011;6546;49.882;8.666;2023-07-29T10:47:18;2.43;;;1.57;;
12962;SDS011;6546;49.882;8.666;2023-07-29T10:49:46;1.80;;;1.60;;
12962;SDS011;6546;49.882;8.666;2023-07-29T10:52:15;2.40;;;1.53;;
12962;SDS011;6546;49.882;8.666;2023-07-29T10:54:43;1.80;;;1.60;;
12962;SDS011;6546;49.882;8.666;2023-07-29T10:57:13;2.13;;;1.57;;
12962;SDS011;6546;49.882;8.666;2023-07-29T10:59:40;2.73;;;1.67;;
12962;SDS011;6546;49.882;8.666;2023-07-29T11:02:20;2.33;;;1.90;;
12962;SDS011;6546;49.882;8.666;2023-07-29T11:04:47;2.53;;;1.83;;
12962;SDS011;6546;49.882;8.666;2023-07-29T11:07:26;2.10;;;1.73;;
12962;SDS011;6546;49.882;8.666;2023-07-29T11:09:54;3.10;;;1.90;;
12962;SDS011;6546;49.882;8.666;2023-07-29T11:12:38;1.97;;;1.73;;
12962;SDS011;6546;49.882;8.666;2023-07-29T11:15:14;3.40;;;1.87;;
12962;SDS011;6546;49.882;8.666;2023-07-29T11:17:44;1.70;;;1.60;;
12962;SDS011;6546;49.882;8.666;2023-07-29T11:20:13;3.60;;;1.93;;
12962;SDS011;6546;49.882;8.666;2023-07-29T11:22:40;2.07;;;1.90;;
12962;SDS011;6546;49.882;8.666;2023-07-29T11:25:07;2.77;;;1.90;;
12962;SDS011;6546;49.882;8.666;2023-07-29T11:27:36;1.83;;;1.73;;
12962;SDS011;6546;49.882;8.666;2023-07-29T11:30:03;3.13;;;1.80;;
12962;SDS011;6546;49.882;8.666;2023-07-29T11:32:32;4.10;;;1.77;;
12962;SDS011;6546;49.882;8.666;2023-07-29T11:35:02;2.27;;;2.00;;
12962;SDS011;6546;49.882;8.666;2023-07-29T11:37:29;3.10;;;1.80;;
12962;SDS011;6546;49.882;8.666;2023-07-29T11:39:56;2.87;;;1.80;;
12962;SDS011;6546;49.882;8.666;2023-07-29T11:42:23;1.63;;;1.53;;
12962;SDS011;6546;49.882;8.666;2023-07-29T11:44:50;2.17;;;1.97;;
12962;SDS011;6546;49.882;8.666;2023-07-29T11:47:16;1.87;;;1.67;;
12962;SDS011;6546;49.882;8.666;2023-07-29T11:49:43;2.27;;;1.70;;
12962;SDS011;6546;49.882;8.666;2023-07-29T11:52:11;3.53;;;1.77;;
12962;SDS011;6546;49.882;8.666;2023-07-29T11:54:38;5.87;;;1.80;;
12962;SDS011;6546;49.882;8.666;2023-07-29T11:57:06;2.60;;;2.13;;
12962;SDS011;6546;49.882;8.666;2023-07-29T11:59:34;3.20;;;2.77;;
12962;SDS011;6546;49.882;8.666;2023-07-29T12:02:01;2.55;;;2.10;;
12962;SDS011;6546;49.882;8.666;2023-07-29T12:04:31;3.17;;;1.50;;
12962;SDS011;6546;49.882;8.666;2023-07-29T12:06:59;2.90;;;1.90;;
12962;SDS011;6546;49.882;8.666;2023-07-29T12:09:28;1.70;;;1.60;;
12962;SDS011;6546;49.882;8.666;2023-07-29T12:11:55;3.20;;;2.00;;
12962;SDS011;6546;49.882;8.666;2023-07-29T12:14:25;2.10;;;1.73;;
12962;SDS011;6546;49.882;8.666;2023-07-29T12:16:52;3.03;;;2.10;;
12962;SDS011;6546;49.882;8.666;2023-07-29T12:19:18;2.63;;;1.50;;
12962;SDS011;6546;49.882;8.666;2023-07-29T12:21:47;4.27;;;2.00;;
12962;SDS011;6546;49.882;8.666;2023-07-29T12:24:14;2.37;;;2.13;;
12962;SDS011;6546;49.882;8.666;2023-07-29T12:26:42;3.20;;;1.90;;
12962;SDS011;6546;49.882;8.666;2023-07-29T12:29:14;2.40;;;1.90;;
12962;SDS011;6546;49.882;8.666;2023-07-29T12:31:41;2.83;;;1.90;;
12962;SDS011;6546;49.882;8.666;2023-07-29T12:34:08;2.63;;;1.60;;
12962;SDS011;6546;49.882;8.666;2023-07-29T12:36:42;2.10;;;1.90;;
12962;SDS011;6546;49.882;8.666;2023-07-29T12:39:16;2.20;;;1.87;;
12962;SDS011;6546;49.882;8.666;2023-07-29T12:41:45;2.80;;;1.80;;
12962;SDS011;6546;49.882;8.666;2023-07-29T12:44:12;2.77;;;1.50;;
12962;SDS011;6546;49.882;8.666;2023-07-29T12:46:38;3.07;;;1.70;;
12962;SDS011;6546;49.882;8.666;2023-07-29T12:49:05;1.93;;;1.80;;
12962;SDS011;6546;49.882;8.666;2023-07-29T12:51:31;1.85;;;1.55;;
12962;SDS011;6546;49.882;8.666;2023-07-29T12:53:58;4.27;;;1.90;;
12962;SDS011;6546;49.882;8.666;2023-07-29T12:56:24;2.70;;;1.63;;
12962;SDS011;6546;49.882;8.666;2023-07-29T12:58:52;3.00;;;2.00;;
12962;SDS011;6546;49.882;8.666;2023-07-29T13:01:19;2.47;;;1.60;;
12962;SDS011;6546;49.882;8.666;2023-07-29T13:03:45;2.00;;;1.90;;
12962;SDS011;6546;49.882;8.666;2023-07-29T13:06:12;3.70;;;1.70;;
12962;SDS011;6546;49.882;8.666;2023-07-29T13:08:39;3.13;;;1.70;;
12962;SDS011;6546;49.882;8.666;2023-07-29T13:11:05;1.80;;;1.70;;
12962;SDS011;6546;49.882;8.666;2023-07-29T13:13:32;3.00;;;1.90;;
12962;SDS011;6546;49.882;8.666;2023-07-29T13:16:00;2.00;;;1.60;;
12962;SDS011;6546;49.882;8.666;2023-07-29T13:18:27;1.90;;;1.70;;
12962;SDS011;6546;49.882;8.666;2023-07-29T13:20:53;2.07;;;1.60;;
12962;SDS011;6546;49.882;8.666;2023-07-29T13:23:20;2.53;;;1.73;;
12962;SDS011;6546;49.882;8.666;2023-07-29T13:25:47;1.90;;;1.60;;
12962;SDS011;6546;49.882;8.666;2023-07-29T13:28:13;3.47;;;1.73;;
12962;SDS011;6546;49.882;8.666;2023-07-29T13:30:40;3.60;;;1.80;;
12962;SDS011;6546;49.882;8.666;2023-07-29T13:33:08;2.23;;;1.63;;
12962;SDS011;6546;49.882;8.666;2023-07-29T13:35:35;2.10;;;1.63;;
12962;SDS011;6546;49.882;8.666;2023-07-29T13:38:01;2.07;;;1.50;;
12962;SDS011;6546;49.882;8.666;2023-07-29T13:40:28;1.77;;;1.67;;
12962;SDS011;6546;49.882;8.666;2023-07-29T13:42:55;3.10;;;1.50;;
12962;SDS011;6546;49.882;8.666;2023-07-29T13:45:22;2.73;;;1.50;;
12962;SDS011;6546;49.882;8.666;2023-07-29T13:47:49;1.87;;;1.77;;
12962;SDS011;6546;49.882;8.666;2023-07-29T13:50:17;2.50;;;1.47;;
12962;SDS011;6546;49.882;8.666;2023-07-29T13:52:44;2.53;;;1.60;;
12962;SDS011;6546;49.882;8.666;2023-07-29T13:55:11;2.70;;;1.50;;
12962;SDS011;6546;49.882;8.666;2023-07-29T13:57:37;1.70;;;1.60;;
12962;SDS011;6546;49.882;8.666;2023-07-29T14:00:05;3.27;;;2.20;;
12962;SDS011;6546;49.882;8.666;2023-07-29T14:02:33;2.17;;;1.77;;
12962;SDS011;6546;49.882;8.666;2023-07-29T14:05:00;1.30;;;1.20;;
12962;SDS011;6546;49.882;8.666;2023-07-29T14:07:27;2.37;;;1.50;;
12962;SDS011;6546;49.882;8.666;2023-07-29T14:09:54;2.47;;;1.77;;
12962;SDS011;6546;49.882;8.666;2023-07-29T14:12:20;3.23;;;1.70;;
12962;SDS011;6546;49.882;8.666;2023-07-29T14:14:47;4.13;;;1.83;;
12962;SDS011;6546;49.882;8.666;2023-07-29T14:17:13;1.53;;;1.43;;
12962;SDS011;6546;49.882;8.666;2023-07-29T14:19:40;1.73;;;1.63;;
12962;SDS011;6546;49.882;8.666;2023-07-29T14:22:07;2.90;;;1.50;;
12962;SDS011;6546;49.882;8.666;2023-07-29T14:24:34;2.50;;;1.60;;
12962;SDS011;6546;49.882;8.666;2023-07-29T14:27:01;1.90;;;1.80;;
12962;SDS011;6546;49.882;8.666;2023-07-29T14:29:28;2.37;;;2.17;;
12962;SDS011;6546;49.882;8.666;2023-07-29T14:31:54;2.97;;;1.80;;
12962;SDS011;6546;49.882;8.666;2023-07-29T14:34:21;2.50;;;2.00;;
12962;SDS011;6546;49.882;8.666;2023-07-29T14:36:48;1.50;;;1.40;;
12962;SDS011;6546;49.882;8.666;2023-07-29T14:39:14;2.10;;;1.90;;
12962;SDS011;6546;49.882;8.666;2023-07-29T14:41:42;1.47;;;1.37;;
12962;SDS011;6546;49.882;8.666;2023-07-29T14:44:09;1.80;;;1.70;;
12962;SDS011;6546;49.882;8.666;2023-07-29T14:46:35;3.87;;;1.70;;
12962;SDS011;6546;49.882;8.666;2023-07-29T14:49:02;2.70;;;1.53;;
12962;SDS011;6546;49.882;8.666;2023-07-29T14:51:29;1.50;;;1.40;;
12962;SDS011;6546;49.882;8.666;2023-07-29T14:53:55;2.00;;;1.47;;
12962;SDS011;6546;49.882;8.666;2023-07-29T14:56:22;3.77;;;1.70;;
12962;SDS011;6546;49.882;8.666;2023-07-29T14:58:50;4.17;;;1.87;;
12962;SDS011;6546;49.882;8.666;2023-07-29T15:01:16;1.57;;;1.47;;
12962;SDS011;6546;49.882;8.666;2023-07-29T15:03:43;1.60;;;1.50;;